createdAt,value
2022-12-27T00:19:52.466Z,100
2022-12-27T00:39:53.146Z,100
2022-12-27T00:59:52.628Z,100
2022-12-27T01:19:52.692Z,100
2022-12-27T01:39:52.769Z,100
2022-12-27T01:59:52.817Z,100
2022-12-27T02:19:52.845Z,100
2022-12-27T02:39:53.063Z,100
2022-12-27T02:59:52.995Z,100
2022-12-27T03:19:52.984Z,100
2022-12-27T03:39:53.034Z,100
2022-12-27T03:59:53.210Z,100
2022-12-27T04:19:53.241Z,100
2022-12-27T04:39:53.188Z,100
2022-12-27T04:59:53.206Z,100
2022-12-27T05:19:53.386Z,100
2022-12-27T05:39:53.431Z,100
2022-12-27T05:59:53.371Z,100
2022-12-27T06:19:56.960Z,100
2022-12-27T06:39:53.447Z,100
2022-12-27T06:59:54.318Z,100
2022-12-27T07:19:53.692Z,100
2022-12-27T07:39:53.630Z,100
2022-12-27T07:59:53.713Z,100
2022-12-27T08:19:53.816Z,100
2022-12-27T08:39:56.501Z,100
2022-12-27T08:59:53.949Z,100
2022-12-27T09:19:53.943Z,100
2022-12-27T09:39:53.933Z,100
2022-12-27T09:59:54.062Z,100
2022-12-27T10:19:54.147Z,100
2022-12-27T10:39:54.073Z,100
2022-12-27T10:59:54.100Z,100
2022-12-27T11:19:54.155Z,100
2022-12-27T11:39:54.191Z,100
2022-12-27T11:59:54.296Z,100
2022-12-27T12:19:54.354Z,100
2022-12-27T12:39:54.309Z,100
2022-12-27T12:59:54.392Z,99.3
2022-12-27T13:19:54.451Z,95.9
2022-12-27T13:39:54.613Z,94.4
2022-12-27T13:59:54.555Z,91.7
2022-12-27T14:19:54.711Z,90.9
2022-12-27T14:39:54.559Z,91.6
2022-12-27T14:59:54.705Z,91.5
2022-12-27T15:19:54.781Z,91
2022-12-27T15:39:54.817Z,90.3
2022-12-27T15:59:54.904Z,89.8
2022-12-27T16:19:54.861Z,90.8
2022-12-27T16:39:54.993Z,91
2022-12-27T16:59:54.900Z,91
2022-12-27T17:19:55.024Z,92.5
2022-12-27T17:39:55.044Z,93.1
2022-12-27T17:59:55.065Z,92.8
2022-12-27T18:19:55.163Z,93
2022-12-27T18:39:55.146Z,93.7
2022-12-27T18:59:55.168Z,94.1
2022-12-27T19:19:55.251Z,94.8
2022-12-27T19:39:55.516Z,95.5
2022-12-27T19:59:55.327Z,95.5
2022-12-27T20:19:55.455Z,95.3
2022-12-27T20:39:55.462Z,95.7
2022-12-27T20:59:55.541Z,95.2
2022-12-27T21:19:55.528Z,94.5
2022-12-27T21:39:55.568Z,94.1
2022-12-27T21:59:55.749Z,93.9
2022-12-27T22:19:55.701Z,94.2
2022-12-27T22:39:55.726Z,95.1
2022-12-27T22:59:55.858Z,96.3
2022-12-27T23:19:55.864Z,97.1
2022-12-27T23:59:55.975Z,98
